sensor_id;sensor_type;location;lat;lon;timestamp;P1;durP1;ratioP1;P2;durP2;ratioP2
18194;SDS011;9223;50.988;3.162;2023-05-10T00:01:52;12.63;;;7.40;;
18194;SDS011;9223;50.988;3.162;2023-05-10T00:07:55;12.30;;;8.20;;
18194;SDS011;9223;50.988;3.162;2023-05-10T00:13:59;11.43;;;7.75;;
18194;SDS011;9223;50.988;3.162;2023-05-10T00:20:04;11.52;;;8.15;;
18194;SDS011;9223;50.988;3.162;2023-05-10T00:26:08;5.88;;;4.05;;
18194;SDS011;9223;50.988;3.162;2023-05-10T00:32:11;10.93;;;6.97;;
18194;SDS011;9223;50.988;3.162;2023-05-10T00:38:16;9.10;;;5.97;;
18194;SDS011;9223;50.988;3.162;2023-05-10T00:44:20;12.43;;;8.68;;
18194;SDS011;9223;50.988;3.162;2023-05-10T00:50:23;9.05;;;6.82;;
18194;SDS011;9223;50.988;3.162;2023-05-10T00:56:28;12.32;;;7.50;;
18194;SDS011;9223;50.988;3.162;2023-05-10T01:02:33;12.13;;;8.23;;
18194;SDS011;9223;50.988;3.162;2023-05-10T01:08:36;13.68;;;8.27;;
18194;SDS011;9223;50.988;3.162;2023-05-10T01:14:41;12.45;;;8.90;;
18194;SDS011;9223;50.988;3.162;2023-05-10T01:20:45;13.02;;;7.50;;
18194;SDS011;9223;50.988;3.162;2023-05-10T01:27:00;9.10;;;7.03;;
18194;SDS011;9223;50.988;3.162;2023-05-10T01:33:08;6.25;;;4.10;;
18194;SDS011;9223;50.988;3.162;2023-05-10T01:39:15;4.18;;;3.10;;
18194;SDS011;9223;50.988;3.162;2023-05-10T01:45:24;4.03;;;2.75;;
18194;SDS011;9223;50.988;3.162;2023-05-10T01:51:35;6.63;;;4.20;;
18194;SDS011;9223;50.988;3.162;2023-05-10T01:57:39;6.53;;;4.40;;
18194;SDS011;9223;50.988;3.162;2023-05-10T02:03:45;11.32;;;6.88;;
18194;SDS011;9223;50.988;3.162;2023-05-10T02:09:51;10.45;;;7.07;;
18194;SDS011;9223;50.988;3.162;2023-05-10T02:15:54;10.10;;;6.57;;
18194;SDS011;9223;50.988;3.162;2023-05-10T02:21:58;6.53;;;4.45;;
18194;SDS011;9223;50.988;3.162;2023-05-10T02:28:04;4.70;;;3.72;;
18194;SDS011;9223;50.988;3.162;2023-05-10T02:34:08;7.22;;;3.60;;
18194;SDS011;9223;50.988;3.162;2023-05-10T02:40:13;6.53;;;4.65;;
18194;SDS011;9223;50.988;3.162;2023-05-10T02:46:20;4.97;;;3.55;;
18194;SDS011;9223;50.988;3.162;2023-05-10T02:52:25;12.40;;;7.38;;
18194;SDS011;9223;50.988;3.162;2023-05-10T02:58:29;7.25;;;5.43;;
18194;SDS011;9223;50.988;3.162;2023-05-10T03:04:34;8.70;;;5.28;;
18194;SDS011;9223;50.988;3.162;2023-05-10T03:10:40;9.48;;;5.03;;
18194;SDS011;9223;50.988;3.162;2023-05-10T03:16:45;3.28;;;2.55;;
18194;SDS011;9223;50.988;3.162;2023-05-10T03:22:51;6.25;;;4.25;;
18194;SDS011;9223;50.988;3.162;2023-05-10T03:28:56;6.80;;;4.90;;
18194;SDS011;9223;50.988;3.162;2023-05-10T03:35:01;8.32;;;4.53;;
18194;SDS011;9223;50.988;3.162;2023-05-10T03:41:05;13.65;;;8.40;;
18194;SDS011;9223;50.988;3.162;2023-05-10T03:47:09;20.40;;;12.60;;
18194;SDS011;9223;50.988;3.162;2023-05-10T03:53:12;10.80;;;7.40;;
18194;SDS011;9223;50.988;3.162;2023-05-10T03:59:17;21.48;;;13.35;;
18194;SDS011;9223;50.988;3.162;2023-05-10T04:05:21;20.08;;;12.68;;
18194;SDS011;9223;50.988;3.162;2023-05-10T04:11:24;13.88;;;9.10;;
18194;SDS011;9223;50.988;3.162;2023-05-10T04:17:29;21.35;;;11.77;;
18194;SDS011;9223;50.988;3.162;2023-05-10T04:23:33;23.75;;;15.30;;
18194;SDS011;9223;50.988;3.162;2023-05-10T04:29:36;19.92;;;12.38;;
18194;SDS011;9223;50.988;3.162;2023-05-10T04:35:41;16.15;;;10.40;;
18194;SDS011;9223;50.988;3.162;2023-05-10T04:41:46;23.33;;;14.25;;
18194;SDS011;9223;50.988;3.162;2023-05-10T04:47:49;21.75;;;13.15;;
18194;SDS011;9223;50.988;3.162;2023-05-10T04:53:54;23.13;;;13.90;;
18194;SDS011;9223;50.988;3.162;2023-05-10T05:00:07;21.92;;;12.80;;
18194;SDS011;9223;50.988;3.162;2023-05-10T05:06:11;25.45;;;13.82;;
18194;SDS011;9223;50.988;3.162;2023-05-10T05:12:15;21.15;;;12.75;;
18194;SDS011;9223;50.988;3.162;2023-05-10T05:18:19;21.63;;;12.77;;
18194;SDS011;9223;50.988;3.162;2023-05-10T05:24:23;23.65;;;12.82;;
18194;SDS011;9223;50.988;3.162;2023-05-10T05:30:28;18.98;;;11.93;;
18194;SDS011;9223;50.988;3.162;2023-05-10T05:36:32;21.95;;;12.32;;
18194;SDS011;9223;50.988;3.162;2023-05-10T05:42:37;20.20;;;11.98;;
18194;SDS011;9223;50.988;3.162;2023-05-10T05:48:43;21.67;;;12.65;;
18194;SDS011;9223;50.988;3.162;2023-05-10T05:54:49;24.48;;;13.25;;
18194;SDS011;9223;50.988;3.162;2023-05-10T06:00:53;20.30;;;13.05;;
18194;SDS011;9223;50.988;3.162;2023-05-10T06:06:58;22.88;;;12.13;;
18194;SDS011;9223;50.988;3.162;2023-05-10T06:13:01;22.20;;;12.05;;
18194;SDS011;9223;50.988;3.162;2023-05-10T06:19:05;19.52;;;11.82;;
18194;SDS011;9223;50.988;3.162;2023-05-10T06:25:10;21.80;;;13.68;;
18194;SDS011;9223;50.988;3.162;2023-05-10T06:31:13;21.48;;;12.38;;
18194;SDS011;9223;50.988;3.162;2023-05-10T06:37:17;19.60;;;11.80;;
18194;SDS011;9223;50.988;3.162;2023-05-10T06:43:23;17.92;;;11.90;;
18194;SDS011;9223;50.988;3.162;2023-05-10T06:49:27;21.02;;;12.65;;
18194;SDS011;9223;50.988;3.162;2023-05-10T06:55:31;12.38;;;8.18;;
18194;SDS011;9223;50.988;3.162;2023-05-10T07:01:35;17.58;;;11.93;;
18194;SDS011;9223;50.988;3.162;2023-05-10T07:07:39;17.15;;;10.82;;
18194;SDS011;9223;50.988;3.162;2023-05-10T07:13:43;19.95;;;12.82;;
18194;SDS011;9223;50.988;3.162;2023-05-10T07:19:49;13.80;;;9.63;;
18194;SDS011;9223;50.988;3.162;2023-05-10T07:25:52;13.95;;;9.95;;
18194;SDS011;9223;50.988;3.162;2023-05-10T07:31:56;14.80;;;9.88;;
18194;SDS011;9223;50.988;3.162;2023-05-10T07:38:01;15.77;;;9.73;;
18194;SDS011;9223;50.988;3.162;2023-05-10T07:44:05;14.18;;;9.23;;
18194;SDS011;9223;50.988;3.162;2023-05-10T07:50:08;10.35;;;7.72;;
18194;SDS011;9223;50.988;3.162;2023-05-10T07:56:24;12.80;;;9.90;;
18194;SDS011;9223;50.988;3.162;2023-05-10T08:02:28;14.85;;;10.48;;
18194;SDS011;9223;50.988;3.162;2023-05-10T08:08:32;15.70;;;11.07;;
18194;SDS011;9223;50.988;3.162;2023-05-10T08:14:37;13.93;;;10.65;;
18194;SDS011;9223;50.988;3.162;2023-05-10T08:20:40;12.15;;;8.98;;
18194;SDS011;9223;50.988;3.162;2023-05-10T08:26:44;12.07;;;9.38;;
18194;SDS011;9223;50.988;3.162;2023-05-10T08:32:48;12.80;;;10.15;;
18194;SDS011;9223;50.988;3.162;2023-05-10T08:38:52;13.05;;;9.95;;
18194;SDS011;9223;50.988;3.162;2023-05-10T08:44:56;15.90;;;10.35;;
18194;SDS011;9223;50.988;3.162;2023-05-10T08:51:01;11.95;;;10.20;;
18194;SDS011;9223;50.988;3.162;2023-05-10T08:57:05;13.57;;;11.35;;
18194;SDS011;9223;50.988;3.162;2023-05-10T09:03:09;14.88;;;11.10;;
18194;SDS011;9223;50.988;3.162;2023-05-10T09:09:14;14.77;;;11.13;;
18194;SDS011;9223;50.988;3.162;2023-05-10T09:15:18;17.73;;;13.43;;
18194;SDS011;9223;50.988;3.162;2023-05-10T09:21:22;17.05;;;14.35;;
18194;SDS011;9223;50.988;3.162;2023-05-10T09:27:27;15.40;;;10.63;;
18194;SDS011;9223;50.988;3.162;2023-05-10T09:33:33;14.40;;;9.75;;
18194;SDS011;9223;50.988;3.162;2023-05-10T09:39:46;15.27;;;9.02;;
18194;SDS011;9223;50.988;3.162;2023-05-10T09:45:51;9.77;;;7.03;;
18194;SDS011;9223;50.988;3.162;2023-05-10T09:52:01;9.55;;;6.60;;
18194;SDS011;9223;50.988;3.162;2023-05-10T09:58:05;10.63;;;6.78;;
18194;SDS011;9223;50.988;3.162;2023-05-10T10:04:13;11.43;;;7.78;;
18194;SDS011;9223;50.988;3.162;2023-05-10T10:10:17;12.30;;;9.07;;
18194;SDS011;9223;50.988;3.162;2023-05-10T10:16:21;14.15;;;9.48;;
18194;SDS011;9223;50.988;3.162;2023-05-10T10:22:25;10.48;;;6.68;;
18194;SDS011;9223;50.988;3.162;2023-05-10T10:28:32;9.77;;;5.80;;
18194;SDS011;9223;50.988;3.162;2023-05-10T10:34:38;9.88;;;6.03;;
18194;SDS011;9223;50.988;3.162;2023-05-10T10:40:43;7.88;;;5.10;;
18194;SDS011;9223;50.988;3.162;2023-05-10T10:46:58;11.20;;;6.43;;
18194;SDS011;9223;50.988;3.162;2023-05-10T10:53:09;11.20;;;6.35;;
18194;SDS011;9223;50.988;3.162;2023-05-10T10:59:20;7.45;;;4.80;;
18194;SDS011;9223;50.988;3.162;2023-05-10T11:05:39;7.80;;;5.22;;
18194;SDS011;9223;50.988;3.162;2023-05-10T11:11:50;8.13;;;6.00;;
18194;SDS011;9223;50.988;3.162;2023-05-10T11:17:58;9.95;;;5.78;;
18194;SDS011;9223;50.988;3.162;2023-05-10T11:24:01;7.13;;;4.95;;
18194;SDS011;9223;50.988;3.162;2023-05-10T11:30:07;9.15;;;4.15;;
18194;SDS011;9223;50.988;3.162;2023-05-10T11:36:15;7.18;;;3.97;;
18194;SDS011;9223;50.988;3.162;2023-05-10T11:42:19;4.35;;;3.80;;
18194;SDS011;9223;50.988;3.162;2023-05-10T11:48:22;7.35;;;4.13;;
18194;SDS011;9223;50.988;3.162;2023-05-10T11:54:27;8.47;;;4.73;;
18194;SDS011;9223;50.988;3.162;2023-05-10T12:00:32;7.53;;;4.30;;
18194;SDS011;9223;50.988;3.162;2023-05-10T12:06:37;4.78;;;3.60;;
18194;SDS011;9223;50.988;3.162;2023-05-10T12:12:44;5.43;;;3.20;;
18194;SDS011;9223;50.988;3.162;2023-05-10T12:18:49;5.18;;;3.35;;
18194;SDS011;9223;50.988;3.162;2023-05-10T12:24:53;6.05;;;3.67;;
18194;SDS011;9223;50.988;3.162;2023-05-10T12:30:58;5.38;;;2.92;;
18194;SDS011;9223;50.988;3.162;2023-05-10T12:37:02;6.20;;;2.83;;
18194;SDS011;9223;50.988;3.162;2023-05-10T12:43:05;4.38;;;2.40;;
18194;SDS011;9223;50.988;3.162;2023-05-10T12:49:11;4.22;;;2.35;;
18194;SDS011;9223;50.988;3.162;2023-05-10T12:55:14;5.53;;;2.60;;
18194;SDS011;9223;50.988;3.162;2023-05-10T13:01:18;9.57;;;2.35;;
18194;SDS011;9223;50.988;3.162;2023-05-10T13:07:23;5.65;;;1.92;;
18194;SDS011;9223;50.988;3.162;2023-05-10T13:13:26;3.40;;;1.58;;
18194;SDS011;9223;50.988;3.162;2023-05-10T13:19:30;4.55;;;1.83;;
18194;SDS011;9223;50.988;3.162;2023-05-10T13:25:35;4.68;;;2.42;;
18194;SDS011;9223;50.988;3.162;2023-05-10T13:31:38;5.25;;;2.20;;
18194;SDS011;9223;50.988;3.162;2023-05-10T13:37:42;4.45;;;1.88;;
18194;SDS011;9223;50.988;3.162;2023-05-10T13:43:47;5.03;;;1.65;;
18194;SDS011;9223;50.988;3.162;2023-05-10T13:49:52;3.90;;;1.83;;
18194;SDS011;9223;50.988;3.162;2023-05-10T13:55:55;6.07;;;2.20;;
18194;SDS011;9223;50.988;3.162;2023-05-10T14:02:00;4.53;;;1.77;;
18194;SDS011;9223;50.988;3.162;2023-05-10T14:08:05;3.35;;;1.90;;
18194;SDS011;9223;50.988;3.162;2023-05-10T14:14:10;3.83;;;1.67;;
18194;SDS011;9223;50.988;3.162;2023-05-10T14:20:16;7.95;;;3.05;;
18194;SDS011;9223;50.988;3.162;2023-05-10T14:26:19;8.30;;;2.58;;
18194;SDS011;9223;50.988;3.162;2023-05-10T14:32:23;5.60;;;2.50;;
18194;SDS011;9223;50.988;3.162;2023-05-10T14:38:29;5.97;;;2.00;;
18194;SDS011;9223;50.988;3.162;2023-05-10T14:44:33;6.45;;;2.38;;
18194;SDS011;9223;50.988;3.162;2023-05-10T14:50:36;6.53;;;2.08;;
18194;SDS011;9223;50.988;3.162;2023-05-10T14:56:42;4.30;;;1.88;;
18194;SDS011;9223;50.988;3.162;2023-05-10T15:02:45;5.68;;;1.92;;
18194;SDS011;9223;50.988;3.162;2023-05-10T15:08:50;5.10;;;2.28;;
18194;SDS011;9223;50.988;3.162;2023-05-10T15:14:55;5.95;;;2.05;;
18194;SDS011;9223;50.988;3.162;2023-05-10T15:20:59;6.28;;;3.33;;
18194;SDS011;9223;50.988;3.162;2023-05-10T15:27:02;6.80;;;3.00;;
18194;SDS011;9223;50.988;3.162;2023-05-10T15:33:07;10.70;;;3.35;;
18194;SDS011;9223;50.988;3.162;2023-05-10T15:39:11;7.90;;;3.28;;
18194;SDS011;9223;50.988;3.162;2023-05-10T15:45:14;5.72;;;2.60;;
18194;SDS011;9223;50.988;3.162;2023-05-10T15:51:20;6.22;;;2.10;;
18194;SDS011;9223;50.988;3.162;2023-05-10T15:57:23;4.57;;;1.73;;
18194;SDS011;9223;50.988;3.162;2023-05-10T16:03:27;6.35;;;2.90;;
18194;SDS011;9223;50.988;3.162;2023-05-10T16:09:32;6.07;;;2.15;;
18194;SDS011;9223;50.988;3.162;2023-05-10T16:15:36;4.10;;;2.10;;
18194;SDS011;9223;50.988;3.162;2023-05-10T16:21:39;5.55;;;2.40;;
18194;SDS011;9223;50.988;3.162;2023-05-10T16:27:44;6.10;;;2.28;;
18194;SDS011;9223;50.988;3.162;2023-05-10T16:33:48;4.40;;;1.92;;
18194;SDS011;9223;50.988;3.162;2023-05-10T16:39:52;3.67;;;2.05;;
18194;SDS011;9223;50.988;3.162;2023-05-10T16:45:57;7.75;;;3.25;;
18194;SDS011;9223;50.988;3.162;2023-05-10T16:52:00;4.57;;;2.47;;
18194;SDS011;9223;50.988;3.162;2023-05-10T16:58:04;4.28;;;2.40;;
18194;SDS011;9223;50.988;3.162;2023-05-10T17:04:09;1.98;;;1.45;;
18194;SDS011;9223;50.988;3.162;2023-05-10T17:10:13;4.43;;;1.52;;
18194;SDS011;9223;50.988;3.162;2023-05-10T17:16:16;4.28;;;1.70;;
18194;SDS011;9223;50.988;3.162;2023-05-10T17:22:22;5.68;;;2.60;;
18194;SDS011;9223;50.988;3.162;2023-05-10T17:28:26;6.45;;;2.65;;
18194;SDS011;9223;50.988;3.162;2023-05-10T17:34:29;7.60;;;2.38;;
18194;SDS011;9223;50.988;3.162;2023-05-10T17:40:34;6.03;;;2.40;;
18194;SDS011;9223;50.988;3.162;2023-05-10T17:46:38;3.97;;;2.22;;
18194;SDS011;9223;50.988;3.162;2023-05-10T17:52:41;5.82;;;2.60;;
18194;SDS011;9223;50.988;3.162;2023-05-10T17:58:46;5.35;;;2.78;;
18194;SDS011;9223;50.988;3.162;2023-05-10T18:04:50;7.25;;;3.28;;
18194;SDS011;9223;50.988;3.162;2023-05-10T18:10:54;6.18;;;2.88;;
18194;SDS011;9223;50.988;3.162;2023-05-10T18:16:59;7.28;;;2.95;;
18194;SDS011;9223;50.988;3.162;2023-05-10T18:23:02;7.25;;;2.97;;
18194;SDS011;9223;50.988;3.162;2023-05-10T18:29:06;8.15;;;3.22;;
18194;SDS011;9223;50.988;3.162;2023-05-10T18:35:12;6.68;;;3.50;;
18194;SDS011;9223;50.988;3.162;2023-05-10T18:41:16;11.43;;;4.40;;
18194;SDS011;9223;50.988;3.162;2023-05-10T18:47:19;4.78;;;2.03;;
18194;SDS011;9223;50.988;3.162;2023-05-10T18:53:24;5.72;;;1.98;;
18194;SDS011;9223;50.988;3.162;2023-05-10T18:59:28;5.90;;;2.03;;
18194;SDS011;9223;50.988;3.162;2023-05-10T19:05:31;4.38;;;1.70;;
18194;SDS011;9223;50.988;3.162;2023-05-10T19:11:36;5.35;;;2.13;;
18194;SDS011;9223;50.988;3.162;2023-05-10T19:17:40;5.07;;;2.55;;
18194;SDS011;9223;50.988;3.162;2023-05-10T19:23:46;7.38;;;1.95;;
18194;SDS011;9223;50.988;3.162;2023-05-10T19:29:51;4.88;;;2.25;;
18194;SDS011;9223;50.988;3.162;2023-05-10T19:35:54;9.98;;;2.65;;
18194;SDS011;9223;50.988;3.162;2023-05-10T19:41:58;7.07;;;2.10;;
18194;SDS011;9223;50.988;3.162;2023-05-10T19:48:03;6.55;;;1.90;;
18194;SDS011;9223;50.988;3.162;2023-05-10T19:54:07;8.77;;;2.60;;
18194;SDS011;9223;50.988;3.162;2023-05-10T20:00:11;10.75;;;2.85;;
18194;SDS011;9223;50.988;3.162;2023-05-10T20:06:16;6.75;;;2.53;;
18194;SDS011;9223;50.988;3.162;2023-05-10T20:12:19;5.95;;;2.58;;
18194;SDS011;9223;50.988;3.162;2023-05-10T20:18:22;5.68;;;2.53;;
18194;SDS011;9223;50.988;3.162;2023-05-10T20:24:27;6.53;;;2.85;;
18194;SDS011;9223;50.988;3.162;2023-05-10T20:30:31;8.43;;;2.80;;
18194;SDS011;9223;50.988;3.162;2023-05-10T20:36:35;9.20;;;2.63;;
18194;SDS011;9223;50.988;3.162;2023-05-10T20:42:39;9.25;;;3.13;;
18194;SDS011;9223;50.988;3.162;2023-05-10T20:48:43;7.28;;;3.00;;
18194;SDS011;9223;50.988;3.162;2023-05-10T20:54:46;9.13;;;2.80;;
18194;SDS011;9223;50.988;3.162;2023-05-10T21:00:51;8.27;;;2.80;;
18194;SDS011;9223;50.988;3.162;2023-05-10T21:06:55;8.52;;;3.08;;
18194;SDS011;9223;50.988;3.162;2023-05-10T21:12:58;7.10;;;2.50;;
18194;SDS011;9223;50.988;3.162;2023-05-10T21:19:03;7.38;;;2.78;;
18194;SDS011;9223;50.988;3.162;2023-05-10T21:25:08;4.95;;;2.20;;
18194;SDS011;9223;50.988;3.162;2023-05-10T21:31:13;6.45;;;2.42;;
18194;SDS011;9223;50.988;3.162;2023-05-10T21:37:19;5.30;;;2.72;;
18194;SDS011;9223;50.988;3.162;2023-05-10T21:43:22;6.90;;;2.72;;
18194;SDS011;9223;50.988;3.162;2023-05-10T21:49:26;7.03;;;2.10;;
18194;SDS011;9223;50.988;3.162;2023-05-10T21:55:31;5.65;;;2.35;;
18194;SDS011;9223;50.988;3.162;2023-05-10T22:01:34;9.10;;;2.67;;
18194;SDS011;9223;50.988;3.162;2023-05-10T22:07:38;7.70;;;2.70;;
18194;SDS011;9223;50.988;3.162;2023-05-10T22:13:43;7.65;;;3.10;;
18194;SDS011;9223;50.988;3.162;2023-05-10T22:19:47;6.70;;;2.65;;
18194;SDS011;9223;50.988;3.162;2023-05-10T22:25:50;8.80;;;2.45;;
18194;SDS011;9223;50.988;3.162;2023-05-10T22:31:55;9.02;;;2.45;;
18194;SDS011;9223;50.988;3.162;2023-05-10T22:37:59;7.38;;;2.90;;
18194;SDS011;9223;50.988;3.162;2023-05-10T22:44:03;8.50;;;2.80;;
18194;SDS011;9223;50.988;3.162;2023-05-10T22:50:08;8.77;;;2.80;;
18194;SDS011;9223;50.988;3.162;2023-05-10T22:56:13;4.05;;;2.35;;
18194;SDS011;9223;50.988;3.162;2023-05-10T23:02:16;8.60;;;3.15;;
18194;SDS011;9223;50.988;3.162;2023-05-10T23:08:21;7.18;;;2.88;;
18194;SDS011;9223;50.988;3.162;2023-05-10T23:14:25;8.00;;;2.45;;
18194;SDS011;9223;50.988;3.162;2023-05-10T23:20:28;9.60;;;3.40;;
18194;SDS011;9223;50.988;3.162;2023-05-10T23:26:33;8.80;;;3.38;;
18194;SDS011;9223;50.988;3.162;2023-05-10T23:32:37;6.82;;;3.15;;
18194;SDS011;9223;50.988;3.162;2023-05-10T23:38:41;8.85;;;3.60;;
18194;SDS011;9223;50.988;3.162;2023-05-10T23:44:46;8.13;;;3.03;;
18194;SDS011;9223;50.988;3.162;2023-05-10T23:50:50;14.93;;;4.22;;
18194;SDS011;9223;50.988;3.162;2023-05-10T23:56:53;7.72;;;3.63;;
